Time;durP1;ratioP1;P1;durP2;ratioP2;P2;SDS_P1;SDS_P2;PMS_P1;PMS_P2;Temp;Humidity;BMP_temperature;BMP_pressure;BME280_temperature;BME280_humidity;BME280_pressure;Samples;Min_cycle;Max_cycle;Signal;HPM_P1;HPM_P2
2022/04/15 00:00:36;;;;;;;;;;;13.40;99.90;;;;;;5032206;28;19909;-67
2022/04/15 00:03:02;;;;;;;;;;;13.30;99.90;;;;;;5032035;28;19909;-67
2022/04/15 00:05:37;;;;;;;;;;;13.20;99.90;;;;;;5032193;28;19913;-69
2022/04/15 00:08:05;;;;;;;;;;;13.30;99.90;;;;;;5032338;28;19920;-69
2022/04/15 00:10:32;;;;;;;;;;;13.30;99.90;;;;;;5032036;28;19916;-68
2022/04/15 00:12:58;;;;;;;;;;;13.40;99.90;;;;;;5033129;28;19909;-69
2022/04/15 00:15:24;;;;;;;;;;;13.40;99.90;;;;;;5034747;28;19910;-68
2022/04/15 00:17:50;;;;;;;;;;;13.40;99.90;;;;;;5038749;28;19909;-69
2022/04/15 00:20:15;;;;;;;;;;;13.40;99.90;;;;;;5033000;28;19963;-69
2022/04/15 00:22:40;;;;;;;;;;;13.50;99.90;;;;;;5033386;28;19917;-68
2022/04/15 00:25:07;;;;;;;;;;;13.50;99.90;;;;;;5032559;28;19916;-69
2022/04/15 00:27:33;;;;;;;;;;;13.30;99.90;;;;;;5033535;28;20405;-68
2022/04/15 00:29:58;;;;;;;;;;;13.10;99.90;;;;;;5037921;28;19931;-68
2022/04/15 00:32:23;;;;;;;;;;;13.10;99.90;;;;;;5036792;28;19910;-70
2022/04/15 00:34:49;;;;;;;;;;;13.10;99.90;;;;;;5048869;28;19909;-68
2022/04/15 00:37:14;;;;;;;;;;;13.10;99.90;;;;;;5032358;28;19909;-69
2022/04/15 00:39:45;;;;;;;;;;;13.10;99.90;;;;;;5032376;28;19909;-69
2022/04/15 00:42:10;;;;;;;;;;;13.10;99.90;;;;;;5032616;28;20417;-69
2022/04/15 00:44:36;;;;;;;;;;;13.10;99.90;;;;;;5032220;28;20007;-68
2022/04/15 00:47:07;;;;;;;;;;;13.10;99.90;;;;;;5031859;28;19919;-68
2022/04/15 00:49:32;;;;;;;;;;;13.10;99.90;;;;;;5032162;28;20390;-68
2022/04/15 00:51:58;;;;;;;;;;;13.10;99.90;;;;;;5031830;28;20017;-68
2022/04/15 00:54:28;;;;;;;;;;;13.00;99.90;;;;;;5031914;28;20000;-68
2022/04/15 00:56:57;;;;;;;;;;;12.90;99.90;;;;;;5032148;28;19912;-68
2022/04/15 00:59:23;;;;;;;;;;;12.90;99.90;;;;;;5035359;28;20112;-67
2022/04/15 01:01:49;;;;;;;;;;;12.80;99.90;;;;;;5035686;28;19913;-68
2022/04/15 01:04:15;;;;;;;;;;;12.70;99.90;;;;;;5035936;28;20255;-68
2022/04/15 01:06:41;;;;;;;;;;;12.60;99.90;;;;;;5035814;28;19913;-68
2022/04/15 01:09:06;;;;;;;;;;;12.50;99.90;;;;;;5035212;28;19913;-66
2022/04/15 01:11:33;;;;;;;;;;;12.50;99.90;;;;;;5035624;28;19913;-68
2022/04/15 01:14:00;;;;;;;;;;;12.40;99.90;;;;;;5035300;28;19909;-67
2022/04/15 01:16:26;;;;;;;;;;;12.40;99.90;;;;;;5035415;28;20370;-68
2022/04/15 01:18:52;;;;;;;;;;;12.50;99.90;;;;;;5035689;28;19964;-68
2022/04/15 01:21:17;;;;;;;;;;;12.50;99.90;;;;;;5035143;28;19909;-68
2022/04/15 01:23:43;;;;;;;;;;;12.50;99.90;;;;;;5050825;28;20378;-67
2022/04/15 01:26:08;;;;;;;;;;;12.50;99.90;;;;;;5034969;28;19914;-68
2022/04/15 01:28:33;;;;;;;;;;;12.30;99.90;;;;;;5035088;28;19910;-68
2022/04/15 01:30:59;;;;;;;;;;;12.20;99.90;;;;;;5034772;28;20014;-67
2022/04/15 01:33:24;;;;;;;;;;;12.10;99.90;;;;;;5035162;28;19909;-68
2022/04/15 01:35:50;;;;;;;;;;;11.90;99.90;;;;;;5035111;28;20337;-67
2022/04/15 01:38:17;;;;;;;;;;;11.80;99.90;;;;;;5034975;28;20281;-67
2022/04/15 01:40:43;;;;;;;;;;;11.80;99.90;;;;;;5034445;28;19913;-68
2022/04/15 01:43:09;;;;;;;;;;;11.70;99.90;;;;;;5034940;28;19909;-68
2022/04/15 01:45:35;;;;;;;;;;;11.60;99.90;;;;;;5034728;28;19920;-68
2022/04/15 01:48:00;;;;;;;;;;;11.70;99.90;;;;;;5034991;28;19978;-68
2022/04/15 01:50:28;;;;;;;;;;;11.80;99.90;;;;;;5034312;28;19909;-67
2022/04/15 01:52:53;;;;;;;;;;;11.70;99.90;;;;;;5034945;28;20386;-68
2022/04/15 01:55:19;;;;;;;;;;;11.70;99.90;;;;;;5034932;28;19963;-68
2022/04/15 01:57:45;;;;;;;;;;;11.90;99.90;;;;;;5034594;28;19913;-67
2022/04/15 02:00:11;;;;;;;;;;;11.90;99.90;;;;;;5049579;22;20394;-70
2022/04/15 02:02:36;;;;;;;;;;;11.90;99.90;;;;;;5019165;28;19916;-70
2022/04/15 02:05:02;;;;;;;;;;;11.90;99.90;;;;;;5014675;28;19999;-70
2022/04/15 02:07:27;;;;;;;;;;;11.80;99.90;;;;;;5014866;28;19956;-71
2022/04/15 02:09:53;;;;;;;;;;;11.90;99.90;;;;;;5013863;28;20382;-70
2022/04/15 02:12:18;;;;;;;;;;;12.00;99.90;;;;;;5014502;28;19909;-70
2022/04/15 02:14:46;;;;;;;;;;;12.00;99.90;;;;;;5014480;28;19910;-71
2022/04/15 02:17:11;;;;;;;;;;;12.10;99.90;;;;;;5014345;28;19910;-70
2022/04/15 02:19:36;;;;;;;;;;;12.20;99.90;;;;;;5014207;28;19920;-69
2022/04/15 02:22:02;;;;;;;;;;;12.20;99.90;;;;;;5014280;28;19996;-70
2022/04/15 02:24:27;;;;;;;;;;;12.20;99.90;;;;;;5014540;28;19980;-70
2022/04/15 02:26:53;;;;;;;;;;;12.20;99.90;;;;;;5013457;28;20009;-70
2022/04/15 02:29:18;;;;;;;;;;;12.10;99.90;;;;;;5014486;28;19930;-70
2022/04/15 02:31:44;;;;;;;;;;;12.00;99.90;;;;;;5014038;28;20434;-70
2022/04/15 02:34:09;;;;;;;;;;;12.00;99.90;;;;;;5014166;28;20378;-70
2022/04/15 02:36:35;;;;;;;;;;;12.00;99.90;;;;;;5013576;28;19956;-70
2022/04/15 02:39:00;;;;;;;;;;;12.00;99.90;;;;;;5014174;28;19963;-70
2022/04/15 02:41:26;;;;;;;;;;;11.90;99.90;;;;;;5013417;28;19917;-70
2022/04/15 02:43:51;;;;;;;;;;;11.90;99.90;;;;;;5014119;28;19970;-70
2022/04/15 02:46:18;;;;;;;;;;;11.80;99.90;;;;;;5013913;28;19917;-70
2022/04/15 02:48:44;;;;;;;;;;;11.60;99.90;;;;;;5013957;28;20399;-69
2022/04/15 02:51:09;;;;;;;;;;;11.40;99.90;;;;;;5013354;28;19917;-71
2022/04/15 02:53:35;;;;;;;;;;;11.20;99.90;;;;;;5013948;28;20359;-71
2022/04/15 02:56:00;;;;;;;;;;;11.00;99.90;;;;;;5013880;28;20371;-71
2022/04/15 02:58:26;;;;;;;;;;;11.00;99.90;;;;;;5013448;28;20405;-71
2022/04/15 03:00:51;;;;;;;;;;;11.10;99.90;;;;;;5013380;28;19918;-71
2022/04/15 03:03:17;;;;;;;;;;;11.20;99.90;;;;;;5013574;28;20000;-71
2022/04/15 03:05:42;;;;;;;;;;;11.40;99.90;;;;;;5013439;28;19920;-71
2022/04/15 03:08:08;;;;;;;;;;;11.40;99.90;;;;;;5013247;28;19992;-71
2022/04/15 03:10:33;;;;;;;;;;;11.40;99.90;;;;;;5013010;28;19914;-71
2022/04/15 03:12:59;;;;;;;;;;;11.40;99.90;;;;;;4995732;28;20363;-70
2022/04/15 03:15:24;;;;;;;;;;;11.40;99.90;;;;;;5013396;28;19909;-70
2022/04/15 03:17:50;;;;;;;;;;;11.30;99.90;;;;;;5013270;28;19909;-71
2022/04/15 03:20:15;;;;;;;;;;;11.30;99.90;;;;;;5012352;28;19910;-70
2022/04/15 03:22:42;;;;;;;;;;;11.20;99.90;;;;;;5012942;28;19910;-70
2022/04/15 03:25:10;;;;;;;;;;;11.40;99.90;;;;;;5013143;28;19910;-69
2022/04/15 03:27:35;;;;;;;;;;;11.40;99.90;;;;;;5012903;28;20038;-70
2022/04/15 03:30:01;;;;;;;;;;;11.30;99.90;;;;;;5012759;28;20011;-71
2022/04/15 03:32:26;;;;;;;;;;;11.20;99.90;;;;;;5013122;28;20286;-70
2022/04/15 03:34:52;;;;;;;;;;;11.20;99.90;;;;;;5013054;28;20279;-70
2022/04/15 03:37:18;;;;;;;;;;;11.20;99.90;;;;;;5012563;28;19932;-71
2022/04/15 03:39:43;;;;;;;;;;;11.20;99.90;;;;;;5012483;28;19913;-70
2022/04/15 03:42:08;;;;;;;;;;;11.20;99.90;;;;;;5012903;28;20289;-70
2022/04/15 03:44:34;;;;;;;;;;;11.20;99.90;;;;;;5012742;28;19909;-73
2022/04/15 03:46:59;;;;;;;;;;;11.30;99.90;;;;;;5012779;28;19913;-71
2022/04/15 03:49:25;;;;;;;;;;;11.30;99.90;;;;;;5012655;28;20115;-71
2022/04/15 03:51:50;;;;;;;;;;;11.20;99.90;;;;;;5012853;28;19909;-71
2022/04/15 03:54:16;;;;;;;;;;;11.10;99.90;;;;;;5012889;28;19909;-70
2022/04/15 03:56:41;;;;;;;;;;;11.10;99.90;;;;;;5012508;28;19917;-71
2022/04/15 03:59:07;;;;;;;;;;;11.00;99.90;;;;;;5012495;28;19975;-70
2022/04/15 04:01:32;;;;;;;;;;;10.90;99.90;;;;;;5012683;28;19909;-70
2022/04/15 04:03:58;;;;;;;;;;;10.70;99.90;;;;;;5012534;28;20355;-70
2022/04/15 04:06:23;;;;;;;;;;;10.60;99.90;;;;;;5012408;28;20073;-71
2022/04/15 04:08:51;;;;;;;;;;;10.60;99.90;;;;;;5012493;28;20394;-71
2022/04/15 04:11:17;;;;;;;;;;;10.50;99.90;;;;;;5012835;28;19910;-71
2022/04/15 04:13:43;;;;;;;;;;;10.60;99.90;;;;;;5012444;28;19914;-69
2022/04/15 04:16:09;;;;;;;;;;;10.70;99.90;;;;;;5012417;28;19911;-70
2022/04/15 04:18:34;;;;;;;;;;;10.70;99.90;;;;;;5012287;28;20305;-70
2022/04/15 04:20:59;;;;;;;;;;;10.70;99.90;;;;;;5011634;28;19910;-70
2022/04/15 04:23:25;;;;;;;;;;;10.80;99.90;;;;;;5012257;28;20004;-70
2022/04/15 04:25:50;;;;;;;;;;;10.80;99.90;;;;;;5010664;28;19972;-70
2022/04/15 04:28:16;;;;;;;;;;;10.90;99.90;;;;;;5012243;28;19916;-70
2022/04/15 04:30:41;;;;;;;;;;;10.90;99.90;;;;;;5011663;28;19913;-69
2022/04/15 04:33:07;;;;;;;;;;;11.00;99.90;;;;;;5012324;28;19959;-70
2022/04/15 04:35:32;;;;;;;;;;;11.00;99.90;;;;;;5012196;28;20286;-70
2022/04/15 04:37:57;;;;;;;;;;;11.00;99.90;;;;;;5012163;28;19909;-70
2022/04/15 04:40:23;;;;;;;;;;;11.10;99.90;;;;;;5011744;28;19914;-70
2022/04/15 04:42:49;;;;;;;;;;;11.00;99.90;;;;;;5012385;28;19916;-70
2022/04/15 04:45:15;;;;;;;;;;;10.90;99.90;;;;;;5011978;28;19910;-70
2022/04/15 04:47:42;;;;;;;;;;;10.80;99.90;;;;;;5011960;28;19916;-70
2022/04/15 04:50:08;;;;;;;;;;;10.70;99.90;;;;;;5011537;28;20339;-71
2022/04/15 04:52:34;;;;;;;;;;;10.70;99.90;;;;;;5011940;28;19996;-70
2022/04/15 04:55:00;;;;;;;;;;;10.80;99.90;;;;;;5012060;28;19991;-71
2022/04/15 04:57:25;;;;;;;;;;;10.90;99.90;;;;;;5011914;28;19909;-71
2022/04/15 04:59:51;;;;;;;;;;;10.90;99.90;;;;;;5011798;28;19917;-71
2022/04/15 05:02:16;;;;;;;;;;;11.00;99.90;;;;;;5011830;28;19996;-70
2022/04/15 05:04:41;;;;;;;;;;;11.00;99.90;;;;;;5011808;28;19916;-71
2022/04/15 05:07:07;;;;;;;;;;;11.10;99.90;;;;;;5011642;28;19917;-70
2022/04/15 05:09:33;;;;;;;;;;;11.10;99.90;;;;;;5011657;28;19913;-71
2022/04/15 05:11:58;;;;;;;;;;;11.00;99.90;;;;;;5012603;28;19909;-71
2022/04/15 05:14:24;;;;;;;;;;;11.10;99.90;;;;;;5011568;28;20318;-71
2022/04/15 05:16:49;;;;;;;;;;;11.00;99.90;;;;;;5011755;28;20028;-71
2022/04/15 05:19:14;;;;;;;;;;;10.90;99.90;;;;;;5011471;28;19952;-71
2022/04/15 05:21:40;;;;;;;;;;;10.80;99.90;;;;;;5011475;28;19948;-71
2022/04/15 05:24:09;;;;;;;;;;;10.90;99.90;;;;;;5011595;28;19917;-71
2022/04/15 05:26:35;;;;;;;;;;;10.90;99.90;;;;;;5012801;28;20289;-71
2022/04/15 05:29:00;;;;;;;;;;;11.00;99.90;;;;;;5012100;28;19920;-71
2022/04/15 05:31:26;;;;;;;;;;;11.10;99.90;;;;;;5011811;28;19909;-71
2022/04/15 05:33:51;;;;;;;;;;;11.30;99.90;;;;;;5011682;28;19910;-71
2022/04/15 05:36:17;;;;;;;;;;;11.30;99.90;;;;;;5011161;28;19913;-70
2022/04/15 05:38:42;;;;;;;;;;;11.40;99.90;;;;;;5010135;28;19964;-71
2022/04/15 05:41:07;;;;;;;;;;;11.50;99.90;;;;;;5011239;28;19917;-71
2022/04/15 05:43:33;;;;;;;;;;;11.60;99.90;;;;;;5012405;28;20031;-71
2022/04/15 05:45:59;;;;;;;;;;;11.70;99.90;;;;;;5014822;28;19922;-71
2022/04/15 05:48:24;;;;;;;;;;;11.90;99.90;;;;;;5014765;28;19964;-71
2022/04/15 05:50:50;;;;;;;;;;;11.90;99.90;;;;;;5014766;28;20426;-71
2022/04/15 05:53:16;;;;;;;;;;;12.00;99.90;;;;;;5015041;28;20397;-71
2022/04/15 05:55:41;;;;;;;;;;;12.00;99.90;;;;;;5014643;28;19910;-71
2022/04/15 05:58:10;;;;;;;;;;;12.10;99.90;;;;;;5014675;28;19917;-71
2022/04/15 06:00:36;;;;;;;;;;;12.00;99.90;;;;;;5014292;28;19962;-71
2022/04/15 06:03:02;;;;;;;;;;;11.90;99.90;;;;;;5014965;28;20040;-71
2022/04/15 06:05:27;;;;;;;;;;;11.60;99.90;;;;;;5014867;28;20486;-71
2022/04/15 06:07:53;;;;;;;;;;;11.30;99.90;;;;;;5014873;28;19968;-71
2022/04/15 06:10:18;;;;;;;;;;;11.20;99.90;;;;;;5014462;28;20389;-71
2022/04/15 06:15:31;;;;;;;;;;;10.80;99.90;;;;;;5014770;28;19933;-71
2022/04/15 06:17:57;;;;;;;;;;;10.80;99.90;;;;;;5015083;28;20302;-71
2022/04/15 06:20:23;;;;;;;;;;;10.60;99.90;;;;;;5014472;28;19913;-71
2022/04/15 06:22:48;;;;;;;;;;;10.70;99.90;;;;;;5014671;28;19909;-71
2022/04/15 06:25:14;;;;;;;;;;;10.60;99.90;;;;;;5014654;28;19910;-70
2022/04/15 06:27:39;;;;;;;;;;;10.40;99.90;;;;;;5014324;28;19957;-70
2022/04/15 06:30:07;;;;;;;;;;;10.40;99.90;;;;;;5014107;28;19909;-71
2022/04/15 06:32:33;;;;;;;;;;;10.30;99.90;;;;;;5014183;28;19913;-72
2022/04/15 06:34:58;;;;;;;;;;;10.30;99.90;;;;;;5014573;28;19916;-70
2022/04/15 06:37:24;;;;;;;;;;;10.30;99.90;;;;;;5014450;28;19917;-73
2022/04/15 06:39:50;;;;;;;;;;;10.40;99.90;;;;;;5028835;28;19999;-70
2022/04/15 06:42:26;;;;;;;;;;;10.30;99.90;;;;;;5032227;28;19913;-72
2022/04/15 06:44:52;;;;;;;;;;;10.40;99.90;;;;;;5032657;28;19921;-70
2022/04/15 06:47:17;;;;;;;;;;;10.50;99.90;;;;;;5032821;28;20378;-70
2022/04/15 06:49:43;;;;;;;;;;;10.60;99.90;;;;;;5032477;28;19917;-70
2022/04/15 06:52:09;;;;;;;;;;;10.80;99.90;;;;;;5031918;28;19913;-71
2022/04/15 06:54:35;;;;;;;;;;;10.80;99.90;;;;;;5031547;28;19920;-70
2022/04/15 06:57:00;;;;;;;;;;;11.00;99.90;;;;;;5031452;28;19913;-71
2022/04/15 06:59:26;;;;;;;;;;;11.00;99.90;;;;;;5032326;28;20023;-70
2022/04/15 07:01:51;;;;;;;;;;;11.10;99.90;;;;;;5033770;28;19956;-71
2022/04/15 07:04:17;;;;;;;;;;;10.80;99.90;;;;;;5037209;28;20394;-71
2022/04/15 07:06:43;;;;;;;;;;;10.50;99.90;;;;;;5039064;28;19972;-70
2022/04/15 07:09:08;;;;;;;;;;;10.40;99.90;;;;;;5033644;28;19909;-70
2022/04/15 07:11:34;;;;;;;;;;;10.30;99.90;;;;;;5044130;28;19916;-70
2022/04/15 07:13:59;;;;;;;;;;;10.40;99.90;;;;;;5043124;28;19917;-69
2022/04/15 07:16:25;;;;;;;;;;;10.60;99.90;;;;;;5044669;28;19913;-70
2022/04/15 07:18:52;;;;;;;;;;;10.70;99.90;;;;;;5047181;28;20453;-69
2022/04/15 07:21:18;;;;;;;;;;;10.60;99.90;;;;;;5049760;28;19909;-68
2022/04/15 07:23:44;;;;;;;;;;;10.50;99.90;;;;;;5030810;28;19909;-70
2022/04/15 07:26:10;;;;;;;;;;;10.50;99.90;;;;;;5035589;28;19967;-69
2022/04/15 07:28:35;;;;;;;;;;;10.50;99.90;;;;;;5032136;28;19913;-70
2022/04/15 07:31:00;;;;;;;;;;;10.20;99.90;;;;;;5031282;28;19916;-70
2022/04/15 07:33:27;;;;;;;;;;;10.10;99.90;;;;;;5032332;28;19920;-69
2022/04/15 07:35:52;;;;;;;;;;;9.90;99.90;;;;;;5032244;28;19916;-69
2022/04/15 07:38:18;;;;;;;;;;;9.90;99.90;;;;;;5032226;28;20382;-70
2022/04/15 07:40:43;;;;;;;;;;;9.80;99.90;;;;;;5031746;28;19949;-70
2022/04/15 07:43:09;;;;;;;;;;;9.90;99.90;;;;;;5032264;28;19946;-69
2022/04/15 07:45:34;;;;;;;;;;;10.00;99.90;;;;;;5032045;28;19921;-70
2022/04/15 07:48:00;;;;;;;;;;;10.00;99.90;;;;;;5031743;28;19909;-69
2022/04/15 07:50:26;;;;;;;;;;;10.00;99.90;;;;;;5031725;28;19996;-70
2022/04/15 07:52:54;;;;;;;;;;;10.30;99.90;;;;;;5031896;28;19936;-70
2022/04/15 07:55:20;;;;;;;;;;;10.50;99.90;;;;;;5032011;28;19986;-69
2022/04/15 07:57:45;;;;;;;;;;;10.80;99.90;;;;;;5031714;28;20453;-70
2022/04/15 08:00:11;;;;;;;;;;;10.90;99.90;;;;;;5031299;28;19923;-70
2022/04/15 08:02:37;;;;;;;;;;;11.10;99.90;;;;;;5031891;28;19955;-69
2022/04/15 08:05:03;;;;;;;;;;;11.20;99.90;;;;;;5031975;28;19913;-69
2022/04/15 08:07:28;;;;;;;;;;;11.20;99.90;;;;;;5031353;28;19932;-70
2022/04/15 08:09:54;;;;;;;;;;;11.40;99.90;;;;;;5030968;28;19959;-71
2022/04/15 08:12:19;;;;;;;;;;;11.60;99.90;;;;;;5030315;28;20326;-70
2022/04/15 08:14:44;;;;;;;;;;;11.60;99.90;;;;;;5031365;28;19992;-70
2022/04/15 08:17:10;;;;;;;;;;;11.40;99.90;;;;;;5012028;28;19909;-70
2022/04/15 08:19:35;;;;;;;;;;;11.10;99.90;;;;;;5015869;28;19910;-70
2022/04/15 08:22:01;;;;;;;;;;;11.10;99.90;;;;;;5031615;28;19909;-70
2022/04/15 08:24:27;;;;;;;;;;;11.00;99.90;;;;;;5031396;28;19909;-70
2022/04/15 08:26:56;;;;;;;;;;;11.00;99.90;;;;;;5031626;28;19919;-71
2022/04/15 08:29:21;;;;;;;;;;;11.10;99.90;;;;;;5030924;28;19920;-70
2022/04/15 08:31:47;;;;;;;;;;;10.90;99.90;;;;;;5013739;28;19913;-71
2022/04/15 08:34:12;;;;;;;;;;;10.70;99.90;;;;;;5031225;28;20370;-70
2022/04/15 08:36:38;;;;;;;;;;;10.70;99.90;;;;;;5031317;28;20370;-70
2022/04/15 08:39:04;;;;;;;;;;;10.80;99.90;;;;;;5030821;28;19956;-70
2022/04/15 08:41:35;;;;;;;;;;;11.00;99.90;;;;;;5031441;28;20345;-70
2022/04/15 08:44:03;;;;;;;;;;;11.30;99.90;;;;;;5031279;28;19923;-70
2022/04/15 08:46:29;;;;;;;;;;;11.40;99.90;;;;;;5031136;28;20263;-70
2022/04/15 08:48:55;;;;;;;;;;;11.60;99.90;;;;;;5030845;28;20444;-70
2022/04/15 08:51:20;;;;;;;;;;;11.70;99.90;;;;;;5030911;28;19909;-70
2022/04/15 08:53:48;;;;;;;;;;;11.70;99.90;;;;;;5030543;28;20392;-70
2022/04/15 08:56:14;;;;;;;;;;;11.90;99.90;;;;;;5055588;22;19936;-69
2022/04/15 08:58:40;;;;;;;;;;;11.80;99.90;;;;;;5040525;28;19917;-67
2022/04/15 09:01:07;;;;;;;;;;;11.90;99.90;;;;;;5029692;28;20378;-69
2022/04/15 09:03:33;;;;;;;;;;;12.20;99.90;;;;;;5031078;28;20011;-67
2022/04/15 09:05:58;;;;;;;;;;;12.10;99.90;;;;;;5032215;28;20404;-67
2022/04/15 09:08:25;;;;;;;;;;;12.00;99.90;;;;;;5032661;28;19913;-68
2022/04/15 09:10:57;;;;;;;;;;;12.20;99.90;;;;;;5030750;28;19916;-68
2022/04/15 09:13:23;;;;;;;;;;;12.30;99.90;;;;;;5032057;28;19971;-70
2022/04/15 09:15:49;;;;;;;;;;;12.20;99.90;;;;;;5032069;28;19920;-68
2022/04/15 09:18:36;;;;;;;;;;;12.20;99.90;;;;;;5036709;28;19909;-68
2022/04/15 09:21:20;;;;;;;;;;;12.10;99.90;;;;;;5055382;28;19948;-68
2022/04/15 09:23:50;;;;;;;;;;;12.30;99.90;;;;;;5055425;28;19999;-68
2022/04/15 09:26:16;;;;;;;;;;;12.50;99.90;;;;;;5055260;28;19913;-67
2022/04/15 09:28:42;;;;;;;;;;;12.60;99.90;;;;;;5054635;28;19913;-68
2022/04/15 09:31:13;;;;;;;;;;;12.70;99.90;;;;;;5054624;28;19909;-68
2022/04/15 09:33:49;;;;;;;;;;;12.80;99.90;;;;;;5054802;28;19962;-68
2022/04/15 09:36:21;;;;;;;;;;;12.70;99.90;;;;;;5054827;28;19916;-68
2022/04/15 09:38:49;;;;;;;;;;;12.50;99.90;;;;;;5054513;28;20445;-67
2022/04/15 09:41:22;;;;;;;;;;;12.40;99.90;;;;;;5054620;28;19916;-68
2022/04/15 09:43:52;;;;;;;;;;;12.40;99.90;;;;;;5054796;28;19912;-67
2022/04/15 09:46:18;;;;;;;;;;;12.70;99.90;;;;;;5055233;28;19913;-68
2022/04/15 09:49:06;;;;;;;;;;;12.80;99.90;;;;;;5054651;28;20243;-68
2022/04/15 09:51:37;;;;;;;;;;;13.10;99.90;;;;;;5053574;28;19917;-68
2022/04/15 09:54:05;;;;;;;;;;;13.20;99.90;;;;;;5054330;28;19951;-68
2022/04/15 09:56:35;;;;;;;;;;;13.50;99.90;;;;;;5054528;28;19916;-67
2022/04/15 09:59:05;;;;;;;;;;;13.50;99.90;;;;;;5054980;28;19909;-67
2022/04/15 10:01:32;;;;;;;;;;;13.60;99.90;;;;;;5054620;28;19955;-68
2022/04/15 10:03:58;;;;;;;;;;;13.80;99.90;;;;;;5055870;28;19919;-68
2022/04/15 10:06:25;;;;;;;;;;;13.70;99.50;;;;;;5054058;28;19917;-67
2022/04/15 10:08:50;;;;;;;;;;;13.30;99.90;;;;;;5055014;28;20367;-68
2022/04/15 10:11:16;;;;;;;;;;;13.30;99.90;;;;;;5053778;28;19988;-68
2022/04/15 10:13:44;;;;;;;;;;;13.10;99.90;;;;;;5052837;28;19925;-68
2022/04/15 10:16:10;;;;;;;;;;;12.90;99.90;;;;;;5053791;28;19909;-67
2022/04/15 10:18:36;;;;;;;;;;;12.90;99.90;;;;;;5053791;28;19916;-68
2022/04/15 10:21:03;;;;;;;;;;;12.70;99.90;;;;;;5053493;28;19909;-68
2022/04/15 10:23:29;;;;;;;;;;;12.80;99.90;;;;;;5055290;28;19909;-68
2022/04/15 10:25:55;;;;;;;;;;;13.00;99.90;;;;;;5053206;28;19913;-68
2022/04/15 10:28:37;;;;;;;;;;;12.80;99.90;;;;;;5053943;28;19980;-67
2022/04/15 10:31:11;;;;;;;;;;;12.60;99.90;;;;;;5052704;28;19917;-67
2022/04/15 10:33:39;;;;;;;;;;;12.70;99.90;;;;;;5053596;28;19917;-69
2022/04/15 10:36:12;;;;;;;;;;;13.10;99.90;;;;;;5053694;28;19930;-69
2022/04/15 10:38:45;;;;;;;;;;;13.40;99.90;;;;;;5052529;28;19931;-68
2022/04/15 10:41:16;;;;;;;;;;;13.40;99.90;;;;;;5053173;28;19948;-69
2022/04/15 10:43:54;;;;;;;;;;;13.40;99.90;;;;;;5053376;28;19917;-67
2022/04/15 10:46:27;;;;;;;;;;;13.20;99.90;;;;;;5053958;28;20405;-68
2022/04/15 10:48:53;;;;;;;;;;;12.80;99.90;;;;;;5053684;28;19916;-69
2022/04/15 10:51:26;;;;;;;;;;;12.80;99.90;;;;;;5052565;28;19916;-68
2022/04/15 10:53:52;;;;;;;;;;;12.80;99.90;;;;;;5054209;28;19913;-69
2022/04/15 10:56:19;;;;;;;;;;;13.00;99.90;;;;;;5053853;28;20396;-69
2022/04/15 11:01:13;;;;;;;;;;;13.20;99.90;;;;;;5054430;28;19909;-69
2022/04/15 11:01:35;;;;;;;;;;;12.90;99.90;;;;;;5053562;28;19909;-68
2022/04/15 11:04:05;;;;;;;;;;;12.90;99.90;;;;;;5054574;28;19916;-68
2022/04/15 11:06:31;;;;;;;;;;;13.10;99.90;;;;;;5053501;28;20369;-67
2022/04/15 11:08:56;;;;;;;;;;;13.30;99.90;;;;;;5054056;28;19916;-68
2022/04/15 11:11:35;;;;;;;;;;;13.20;99.90;;;;;;5053439;28;19913;-68
2022/04/15 11:14:04;;;;;;;;;;;13.20;99.90;;;;;;5051898;28;19962;-68
2022/04/15 11:16:47;;;;;;;;;;;13.50;99.90;;;;;;5054437;28;19916;-67
2022/04/15 11:19:15;;;;;;;;;;;13.50;99.90;;;;;;5053246;28;19917;-69
2022/04/15 11:21:41;;;;;;;;;;;13.00;99.90;;;;;;5054676;28;20505;-68
2022/04/15 11:24:11;;;;;;;;;;;12.90;99.90;;;;;;5054218;28;19913;-67
2022/04/15 11:26:37;;;;;;;;;;;12.80;99.90;;;;;;5053285;28;19920;-67
2022/04/15 11:29:04;;;;;;;;;;;13.10;99.90;;;;;;5054220;28;19919;-68
2022/04/15 11:31:31;;;;;;;;;;;13.50;99.90;;;;;;5053983;28;19908;-69
2022/04/15 11:34:02;;;;;;;;;;;13.80;99.90;;;;;;5052991;28;19912;-68
2022/04/15 11:36:30;;;;;;;;;;;14.00;99.90;;;;;;5052804;28;19912;-67
2022/04/15 11:38:58;;;;;;;;;;;13.80;99.90;;;;;;5052928;28;19968;-67
2022/04/15 11:41:24;;;;;;;;;;;13.40;99.90;;;;;;5051781;28;19909;-67
2022/04/15 11:44:06;;;;;;;;;;;13.30;99.90;;;;;;5053145;28;20102;-69
2022/04/15 11:46:43;;;;;;;;;;;13.30;99.90;;;;;;5059661;28;19912;-67
2022/04/15 11:49:16;;;;;;;;;;;13.20;99.90;;;;;;5056227;28;19916;-68
2022/04/15 11:51:46;;;;;;;;;;;13.30;99.90;;;;;;5052491;28;19970;-68
2022/04/15 11:54:11;;;;;;;;;;;13.40;99.90;;;;;;5052556;28;19947;-68
2022/04/15 11:56:38;;;;;;;;;;;13.30;99.90;;;;;;5051868;28;19980;-69
2022/04/15 11:59:04;;;;;;;;;;;13.50;99.90;;;;;;5052614;28;19909;-66
2022/04/15 12:01:32;;;;;;;;;;;13.30;99.90;;;;;;5052209;28;19909;-68
2022/04/15 12:04:00;;;;;;;;;;;13.10;99.90;;;;;;5052468;28;20274;-68
2022/04/15 12:06:26;;;;;;;;;;;13.10;99.90;;;;;;5052323;28;20270;-68
2022/04/15 12:08:52;;;;;;;;;;;12.90;99.90;;;;;;5051973;28;19963;-68
2022/04/15 12:11:25;;;;;;;;;;;12.90;99.90;;;;;;5051657;28;19939;-68
2022/04/15 12:13:55;;;;;;;;;;;12.70;99.90;;;;;;5052011;28;19916;-69
2022/04/15 12:16:20;;;;;;;;;;;12.90;99.90;;;;;;5052374;28;20399;-69
2022/04/15 12:18:46;;;;;;;;;;;13.40;99.90;;;;;;5052163;28;19920;-68
2022/04/15 12:21:11;;;;;;;;;;;13.80;99.90;;;;;;5051960;28;19913;-69
2022/04/15 12:23:37;;;;;;;;;;;13.80;99.90;;;;;;5052023;28;19909;-67
2022/04/15 12:26:07;;;;;;;;;;;13.50;99.90;;;;;;5051928;28;19947;-69
2022/04/15 12:31:28;;;;;;;;;;;14.20;99.90;;;;;;5052492;28;19963;-70
2022/04/15 12:33:54;;;;;;;;;;;14.30;99.20;;;;;;5050858;28;19944;-67
2022/04/15 12:36:20;;;;;;;;;;;14.50;99.00;;;;;;5051550;28;20382;-67
2022/04/15 12:38:58;;;;;;;;;;;14.10;99.10;;;;;;5052327;28;19908;-68
2022/04/15 12:41:23;;;;;;;;;;;14.20;99.70;;;;;;5052036;28;19908;-68
2022/04/15 12:43:48;;;;;;;;;;;14.30;99.50;;;;;;5052261;28;19920;-69
2022/04/15 12:46:17;;;;;;;;;;;14.40;99.20;;;;;;5052102;28;19913;-68
2022/04/15 12:48:49;;;;;;;;;;;14.20;99.40;;;;;;5053235;28;19909;-68
2022/04/15 12:51:14;;;;;;;;;;;14.40;99.30;;;;;;5053062;28;19913;-68
2022/04/15 12:53:40;;;;;;;;;;;14.50;98.90;;;;;;5054460;28;19918;-67
2022/04/15 12:56:11;;;;;;;;;;;14.80;98.70;;;;;;5056851;28;20020;-68
2022/04/15 12:58:38;;;;;;;;;;;15.00;98.30;;;;;;5056465;28;19948;-67
2022/04/15 13:01:03;;;;;;;;;;;14.80;98.00;;;;;;5056324;28;19909;-68
2022/04/15 13:03:30;;;;;;;;;;;14.50;98.60;;;;;;5056671;28;19932;-68
2022/04/15 13:05:57;;;;;;;;;;;14.50;98.90;;;;;;5056485;28;19920;-68
2022/04/15 13:08:23;;;;;;;;;;;14.70;98.60;;;;;;5056883;28;19912;-70
2022/04/15 13:10:49;;;;;;;;;;;14.80;98.10;;;;;;5056177;28;20259;-69
2022/04/15 13:13:15;;;;;;;;;;;14.70;98.10;;;;;;5056427;28;19935;-67
2022/04/15 13:15:41;;;;;;;;;;;14.80;97.90;;;;;;5056034;28;19908;-69
2022/04/15 13:18:07;;;;;;;;;;;14.60;97.80;;;;;;5056289;28;19931;-68
2022/04/15 13:20:32;;;;;;;;;;;14.20;98.60;;;;;;5056176;28;19916;-70
2022/04/15 13:22:58;;;;;;;;;;;14.10;99.20;;;;;;5057057;28;19909;-69
2022/04/15 13:25:24;;;;;;;;;;;14.30;99.20;;;;;;5056171;28;19909;-67
2022/04/15 13:27:49;;;;;;;;;;;14.50;98.60;;;;;;5056826;28;19916;-67
2022/04/15 13:30:15;;;;;;;;;;;14.40;98.60;;;;;;5056086;28;19925;-69
2022/04/15 13:32:40;;;;;;;;;;;14.50;98.30;;;;;;5056255;28;19999;-68
2022/04/15 13:35:06;;;;;;;;;;;14.70;98.00;;;;;;5056138;28;19945;-69
2022/04/15 13:37:32;;;;;;;;;;;15.10;97.60;;;;;;5055533;28;20397;-67
2022/04/15 13:39:57;;;;;;;;;;;15.30;96.60;;;;;;5055634;28;19909;-67
2022/04/15 13:42:23;;;;;;;;;;;15.30;96.60;;;;;;5055951;28;19909;-66
2022/04/15 13:44:48;;;;;;;;;;;15.50;96.10;;;;;;5056118;28;19913;-69
2022/04/15 13:47:14;;;;;;;;;;;15.50;96.20;;;;;;5055707;28;19992;-68
2022/04/15 13:49:40;;;;;;;;;;;15.60;96.10;;;;;;5055812;28;19908;-68
2022/04/15 13:57:33;;;;;;;;;;;16.10;96.50;;;;;;5055066;28;19967;-68
2022/04/15 14:00:03;;;;;;;;;;;16.40;96.10;;;;;;5054874;28;19913;-68
2022/04/15 14:02:29;;;;;;;;;;;16.20;95.20;;;;;;5054356;28;19917;-68
2022/04/15 14:04:54;;;;;;;;;;;15.70;95.40;;;;;;5051232;28;19962;-68
2022/04/15 14:07:20;;;;;;;;;;;15.60;96.10;;;;;;5053215;28;19917;-67
2022/04/15 14:09:45;;;;;;;;;;;15.60;95.90;;;;;;5053541;28;19913;-67
2022/04/15 14:12:11;;;;;;;;;;;15.50;95.90;;;;;;5053715;28;19908;-66
2022/04/15 14:14:36;;;;;;;;;;;15.30;95.90;;;;;;5053628;28;20374;-67
2022/04/15 14:17:02;;;;;;;;;;;15.20;96.10;;;;;;5053117;28;20006;-68
2022/04/15 14:19:27;;;;;;;;;;;15.20;96.50;;;;;;5054249;28;19944;-67
2022/04/15 14:21:53;;;;;;;;;;;15.60;96.50;;;;;;5053122;28;20000;-69
2022/04/15 14:24:18;;;;;;;;;;;15.90;95.80;;;;;;5054348;28;19913;-68